createdAt,value
2023-05-18T00:01:15.565Z,78.10
2023-05-18T00:03:44.280Z,77.33
2023-05-18T00:06:14.097Z,76.58
2023-05-18T00:08:42.265Z,75.97
2023-05-18T00:11:10.547Z,76.52
2023-05-18T00:13:38.994Z,76.53
2023-05-18T00:16:07.650Z,76.42
2023-05-18T00:18:36.090Z,76.83
2023-05-18T00:21:04.566Z,76.36
2023-05-18T00:23:34.013Z,75.53
2023-05-18T00:26:04.692Z,75.10
2023-05-18T00:28:32.912Z,75.43
2023-05-18T00:31:01.848Z,74.81
2023-05-18T00:33:30.698Z,74.94
2023-05-18T00:35:59.572Z,74.70
2023-05-18T00:38:29.126Z,74.98
2023-05-18T00:40:59.248Z,75.09
2023-05-18T00:43:27.708Z,75.47
2023-05-18T00:45:56.139Z,73.96
2023-05-18T00:48:24.240Z,74.51
2023-05-18T00:50:52.849Z,74.38
2023-05-18T00:53:21.304Z,72.57
2023-05-18T00:55:50.504Z,72.12
2023-05-18T00:58:20.738Z,72.77
2023-05-18T01:00:49.241Z,73.09
2023-05-18T01:03:20.310Z,72.83
2023-05-18T01:05:50.263Z,73.10
2023-05-18T01:08:18.343Z,72.75
2023-05-18T01:10:50.354Z,72.79
2023-05-18T01:13:25.843Z,73.47
2023-05-18T01:15:58.359Z,72.85
2023-05-18T01:18:32.944Z,73.45
2023-05-18T01:21:13.624Z,73.22
2023-05-18T01:24:03.904Z,73.15
2023-05-18T01:26:37.999Z,73.11
2023-05-18T01:29:10.508Z,73.85
2023-05-18T01:31:39.975Z,74.27
2023-05-18T01:34:08.467Z,74.64
2023-05-18T01:36:36.628Z,74.14
2023-05-18T01:39:05.524Z,73.39
2023-05-18T01:41:39.368Z,73.70
2023-05-18T01:44:17.798Z,72.77
2023-05-18T01:46:54.305Z,72.63
2023-05-18T01:49:30.366Z,73.80
2023-05-18T01:52:04.611Z,74.45
2023-05-18T01:54:34.990Z,73.06
2023-05-18T01:57:07.957Z,72.68
2023-05-18T01:59:38.176Z,72.86
2023-05-18T02:02:06.753Z,72.89
2023-05-18T02:04:37.556Z,72.82
2023-05-18T02:07:06.400Z,72.61
2023-05-18T02:09:34.713Z,73.28
2023-05-18T02:12:04.436Z,73.48
2023-05-18T02:14:33.935Z,73.89
2023-05-18T02:17:02.193Z,74.09
2023-05-18T02:19:31.125Z,74.75
2023-05-18T02:21:59.297Z,73.85
2023-05-18T02:24:27.308Z,74.63
2023-05-18T02:26:55.908Z,74.36
2023-05-18T02:29:26.540Z,75.13
2023-05-18T02:31:55.481Z,75.00
2023-05-18T02:34:24.896Z,75.68
2023-05-18T02:36:53.605Z,75.04
2023-05-18T02:39:21.751Z,74.92
2023-05-18T02:41:50.269Z,75.86
2023-05-18T02:44:18.869Z,75.50
2023-05-18T02:46:48.733Z,75.80
2023-05-18T02:49:16.930Z,76.12
2023-05-18T02:51:45.378Z,75.66
2023-05-18T02:54:14.177Z,76.33
2023-05-18T02:56:44.211Z,76.54
2023-05-18T02:59:28.871Z,76.59
2023-05-18T03:01:59.868Z,76.41
2023-05-18T03:04:28.280Z,77.60
2023-05-18T03:06:58.636Z,77.29
2023-05-18T03:09:27.898Z,77.82
2023-05-18T03:11:56.998Z,77.76
2023-05-18T03:14:25.285Z,77.59
2023-05-18T03:16:58.037Z,78.13
2023-05-18T03:19:28.702Z,78.24
2023-05-18T03:21:58.058Z,78.54
2023-05-18T03:24:30.570Z,78.62
2023-05-18T03:27:04.400Z,79.33
2023-05-18T03:29:32.958Z,79.03
2023-05-18T03:32:04.013Z,79.53
2023-05-18T03:34:33.825Z,79.47
2023-05-18T03:37:02.305Z,80.22
2023-05-18T03:39:31.609Z,79.63
2023-05-18T03:41:59.734Z,79.94
2023-05-18T03:44:28.039Z,80.05
2023-05-18T03:46:57.017Z,80.08
2023-05-18T03:49:25.785Z,80.39
2023-05-18T03:51:56.467Z,80.22
2023-05-18T03:54:25.535Z,79.88
2023-05-18T03:56:54.501Z,80.22
2023-05-18T03:59:22.680Z,80.66
2023-05-18T04:01:53.991Z,80.07
2023-05-18T04:04:27.689Z,80.35
2023-05-18T04:06:58.172Z,80.20
2023-05-18T04:09:28.090Z,80.27
2023-05-18T04:11:56.659Z,79.86
2023-05-18T04:14:28.254Z,79.75
2023-05-18T04:16:58.393Z,79.38
2023-05-18T04:19:26.958Z,79.53
2023-05-18T04:21:55.750Z,79.24
2023-05-18T04:24:27.244Z,79.56
2023-05-18T04:26:56.148Z,79.03
2023-05-18T04:29:24.552Z,79.64
2023-05-18T04:31:53.815Z,79.87
2023-05-18T04:34:24.679Z,79.41
2023-05-18T04:36:54.876Z,79.16
2023-05-18T04:39:23.651Z,78.85
2023-05-18T04:41:58.324Z,78.11
2023-05-18T04:44:30.353Z,79.02
2023-05-18T04:47:01.703Z,78.61
2023-05-18T04:49:33.040Z,78.23
2023-05-18T04:52:01.537Z,77.92
2023-05-18T04:54:32.081Z,78.36
2023-05-18T04:57:03.523Z,77.15
2023-05-18T04:59:36.977Z,77.23
2023-05-18T05:02:06.620Z,77.45
2023-05-18T05:04:34.772Z,77.73
2023-05-18T05:07:04.164Z,77.26
2023-05-18T05:09:32.594Z,77.25
2023-05-18T05:12:02.256Z,77.87
2023-05-18T05:14:30.839Z,76.88
2023-05-18T05:16:59.753Z,77.04
2023-05-18T05:19:28.915Z,75.59
2023-05-18T05:21:57.301Z,74.56
2023-05-18T05:24:25.991Z,73.64
2023-05-18T05:26:54.250Z,73.19
2023-05-18T05:29:26.527Z,73.04
2023-05-18T05:31:55.009Z,72.22
2023-05-18T05:34:23.868Z,71.41
2023-05-18T05:36:52.465Z,71.90
2023-05-18T05:39:21.008Z,70.63
2023-05-18T05:41:49.257Z,71.79
2023-05-18T05:44:19.256Z,72.80
2023-05-18T05:46:49.575Z,70.25
2023-05-18T05:49:18.158Z,71.14
2023-05-18T05:51:47.063Z,72.00
2023-05-18T05:54:15.671Z,69.87
2023-05-18T05:56:44.541Z,71.28
2023-05-18T05:59:13.293Z,70.33
2023-05-18T06:01:41.633Z,68.98
2023-05-18T06:04:12.898Z,67.87
2023-05-18T06:06:43.873Z,68.17
2023-05-18T06:09:13.896Z,67.86
2023-05-18T06:11:42.336Z,67.16
2023-05-18T06:14:11.135Z,68.25
2023-05-18T06:16:39.972Z,66.98
2023-05-18T06:19:08.881Z,67.52
2023-05-18T06:21:39.597Z,67.72
2023-05-18T06:24:09.649Z,65.28
2023-05-18T06:27:27.186Z,66.23
2023-05-18T06:30:21.213Z,67.00
2023-05-18T06:33:08.523Z,65.23
2023-05-18T06:35:37.219Z,64.11
2023-05-18T06:38:07.026Z,63.96
2023-05-18T06:40:36.519Z,63.00
2023-05-18T06:43:05.292Z,62.33
2023-05-18T06:45:45.576Z,61.36
2023-05-18T06:48:25.616Z,58.65
2023-05-18T06:50:56.560Z,57.69
2023-05-18T06:53:27.588Z,56.58
2023-05-18T06:55:56.686Z,58.54
2023-05-18T06:58:25.180Z,54.93
2023-05-18T07:00:54.361Z,51.42
2023-05-18T07:03:23.593Z,52.01
2023-05-18T07:05:52.028Z,54.18
2023-05-18T07:08:20.876Z,54.93
2023-05-18T07:10:51.239Z,55.83
2023-05-18T07:13:20.570Z,52.31
2023-05-18T07:15:49.572Z,47.48
2023-05-18T07:18:17.914Z,44.53
2023-05-18T07:20:46.286Z,42.06
2023-05-18T07:23:15.404Z,42.62
2023-05-18T07:25:43.870Z,45.13
2023-05-18T07:28:13.858Z,45.54
2023-05-18T07:30:42.607Z,46.33
2023-05-18T07:33:11.322Z,43.85
2023-05-18T07:35:39.933Z,43.31
2023-05-18T07:38:08.332Z,41.47
2023-05-18T07:40:36.708Z,42.57
2023-05-18T07:43:05.051Z,44.89
2023-05-18T07:45:34.851Z,46.66
2023-05-18T07:48:03.691Z,45.02
2023-05-18T07:50:32.458Z,43.53
2023-05-18T07:53:00.855Z,43.21
2023-05-18T07:55:29.350Z,42.28
2023-05-18T07:57:57.578Z,42.34
2023-05-18T08:00:26.242Z,43.24
2023-05-18T08:02:56.917Z,46.36
2023-05-18T08:05:25.566Z,47.52
2023-05-18T08:07:54.439Z,48.84
2023-05-18T08:10:22.957Z,46.68
2023-05-18T08:12:51.722Z,43.97
2023-05-18T08:15:20.117Z,45.13
2023-05-18T08:17:48.492Z,44.79
2023-05-18T08:20:19.229Z,38.87
2023-05-18T08:22:47.317Z,35.07
2023-05-18T08:25:15.977Z,36.00
2023-05-18T08:27:44.435Z,37.29
2023-05-18T08:30:14.190Z,38.50
2023-05-18T08:32:42.434Z,39.26
2023-05-18T08:35:11.668Z,37.73
2023-05-18T08:37:41.753Z,36.81
2023-05-18T08:40:11.673Z,35.70
2023-05-18T08:42:49.964Z,35.60
2023-05-18T08:45:29.160Z,36.17
2023-05-18T08:47:58.505Z,37.68
2023-05-18T08:50:31.658Z,34.92
2023-05-18T08:53:07.293Z,37.17
2023-05-18T09:00:32.329Z,34.44
2023-05-18T09:04:16.397Z,34.36
2023-05-18T09:06:46.882Z,35.14
2023-05-18T09:09:17.023Z,34.66
2023-05-18T09:11:46.707Z,36.38
2023-05-18T09:14:15.971Z,37.49
2023-05-18T09:16:44.792Z,37.66
2023-05-18T09:19:13.278Z,39.95
2023-05-18T09:21:41.643Z,41.12
2023-05-18T09:24:11.857Z,40.87
2023-05-18T09:26:42.156Z,42.02
2023-05-18T09:29:21.897Z,44.60
2023-05-18T09:31:50.737Z,44.14
2023-05-18T09:34:19.481Z,43.45
2023-05-18T09:36:49.624Z,42.32
2023-05-18T09:39:18.005Z,41.83
2023-05-18T09:41:48.794Z,39.57
2023-05-18T09:44:19.115Z,35.63
2023-05-18T09:46:48.039Z,35.09
2023-05-18T09:49:23.314Z,41.11
2023-05-18T09:51:52.145Z,38.99
2023-05-18T09:54:24.610Z,37.61
2023-05-18T09:57:08.932Z,35.91
2023-05-18T09:59:39.658Z,36.33
2023-05-18T10:02:09.160Z,36.34
2023-05-18T10:04:43.137Z,37.05
2023-05-18T10:07:13.445Z,36.13
2023-05-18T10:09:43.054Z,38.07
2023-05-18T10:12:17.849Z,39.00
2023-05-18T10:14:47.506Z,40.10
2023-05-18T10:17:18.025Z,40.00
2023-05-18T10:19:47.248Z,41.57
2023-05-18T10:22:18.678Z,41.17
2023-05-18T10:24:51.695Z,42.53
2023-05-18T10:27:28.296Z,40.74
2023-05-18T10:29:59.976Z,39.37
2023-05-18T10:32:31.228Z,42.43
2023-05-18T10:35:01.650Z,43.28
2023-05-18T10:37:32.466Z,41.45
2023-05-18T10:40:03.502Z,41.60
2023-05-18T10:42:34.200Z,42.26
2023-05-18T10:45:05.749Z,42.72
2023-05-18T10:47:39.787Z,43.31
2023-05-18T10:50:10.627Z,40.60
2023-05-18T10:52:39.730Z,41.75
2023-05-18T10:55:10.120Z,39.79
2023-05-18T10:57:44.399Z,41.27
2023-05-18T11:00:13.614Z,42.08
2023-05-18T11:02:43.714Z,40.54
2023-05-18T11:05:13.843Z,40.98
2023-05-18T11:07:46.620Z,42.10
2023-05-18T11:10:15.624Z,41.64
2023-05-18T11:12:46.100Z,40.63
2023-05-18T11:15:14.817Z,41.53
2023-05-18T11:17:42.948Z,39.26
2023-05-18T11:20:13.510Z,41.91
2023-05-18T11:22:44.304Z,39.68
2023-05-18T11:25:44.456Z,40.22
2023-05-18T11:28:14.880Z,40.62
2023-05-18T11:30:49.971Z,40.16
2023-05-18T11:33:23.301Z,38.38
2023-05-18T11:36:04.830Z,41.00
2023-05-18T11:38:50.802Z,38.90
2023-05-18T11:41:31.658Z,36.08
2023-05-18T11:44:09.246Z,38.13
2023-05-18T11:46:37.518Z,37.82
2023-05-18T11:49:06.167Z,39.65
2023-05-18T11:51:34.659Z,37.72
2023-05-18T11:54:03.262Z,39.84
2023-05-18T11:56:35.122Z,37.73
2023-05-18T11:59:15.268Z,37.98
2023-05-18T12:01:44.648Z,37.35
2023-05-18T12:04:13.789Z,39.54
2023-05-18T12:06:42.230Z,38.22
2023-05-18T12:09:10.518Z,39.62
2023-05-18T12:11:41.377Z,40.29
2023-05-18T12:14:10.079Z,39.86
2023-05-18T12:16:42.753Z,38.40
2023-05-18T12:19:11.094Z,42.47
2023-05-18T12:21:39.685Z,41.76
2023-05-18T12:24:08.706Z,42.91
2023-05-18T12:26:38.366Z,43.44
2023-05-18T12:29:09.726Z,43.43
2023-05-18T12:31:42.681Z,42.66
2023-05-18T12:34:11.711Z,42.81
2023-05-18T12:36:44.171Z,42.73
2023-05-18T12:39:17.264Z,44.17
2023-05-18T12:41:46.688Z,44.18
2023-05-18T12:44:16.584Z,43.97
2023-05-18T12:46:45.636Z,44.34
2023-05-18T12:49:14.266Z,42.78
2023-05-18T12:51:42.362Z,43.45
2023-05-18T12:54:11.013Z,43.28
2023-05-18T12:57:01.756Z,45.54
2023-05-18T12:59:32.020Z,45.43
2023-05-18T13:02:00.899Z,44.47
2023-05-18T13:04:35.476Z,45.95
2023-05-18T13:07:04.129Z,44.11
2023-05-18T13:09:32.437Z,43.03
2023-05-18T13:14:39.526Z,43.05
2023-05-18T13:17:08.406Z,43.45
2023-05-18T13:19:37.308Z,41.71
2023-05-18T13:22:05.960Z,42.10
2023-05-18T13:24:34.381Z,43.88
2023-05-18T13:27:02.665Z,44.91
2023-05-18T13:29:30.678Z,42.93
2023-05-18T13:32:00.290Z,42.83
2023-05-18T13:34:28.686Z,40.48
2023-05-18T13:36:57.215Z,42.44
2023-05-18T13:39:25.530Z,42.03
2023-05-18T13:41:54.758Z,40.09
2023-05-18T13:44:24.468Z,37.25
2023-05-18T13:46:53.225Z,37.50
2023-05-18T13:49:23.051Z,39.30
2023-05-18T13:51:51.401Z,35.09
2023-05-18T13:54:19.702Z,34.55
2023-05-18T13:56:48.259Z,36.95
2023-05-18T13:59:19.469Z,37.68
2023-05-18T14:01:48.177Z,38.75
2023-05-18T14:04:16.378Z,37.30
2023-05-18T14:06:46.426Z,38.02
2023-05-18T14:09:15.078Z,37.94
2023-05-18T14:11:43.242Z,38.85
2023-05-18T14:14:11.645Z,38.77
2023-05-18T14:16:39.840Z,37.91
2023-05-18T14:19:08.325Z,39.55
2023-05-18T14:21:36.651Z,39.42
2023-05-18T14:24:08.842Z,37.50
2023-05-18T14:26:39.476Z,36.24
2023-05-18T14:29:08.849Z,38.61
2023-05-18T14:31:37.800Z,39.18
2023-05-18T14:34:06.427Z,38.75
2023-05-18T14:36:35.005Z,38.22
2023-05-18T14:39:03.679Z,34.87
2023-05-18T14:41:33.705Z,36.06
2023-05-18T14:44:04.384Z,37.01
2023-05-18T14:46:32.711Z,37.63
2023-05-18T14:49:01.080Z,38.04
2023-05-18T14:51:29.812Z,40.73
2023-05-18T14:53:58.033Z,39.68
2023-05-18T14:56:26.981Z,37.85
2023-05-18T14:58:57.961Z,36.61
2023-05-18T15:01:27.046Z,37.81
2023-05-18T15:03:55.561Z,37.13
2023-05-18T15:06:24.347Z,36.44
2023-05-18T15:08:52.750Z,37.25
2023-05-18T15:11:22.723Z,37.60
2023-05-18T15:13:52.047Z,37.55
2023-05-18T15:16:22.093Z,37.46
2023-05-18T15:18:50.557Z,37.58
2023-05-18T15:21:19.006Z,37.88
2023-05-18T15:23:47.379Z,38.06
2023-05-18T15:26:15.490Z,38.96
2023-05-18T15:28:45.179Z,38.16
2023-05-18T15:31:13.751Z,39.54
2023-05-18T15:33:43.923Z,40.76
2023-05-18T15:36:12.672Z,41.03
2023-05-18T15:38:41.179Z,41.10
2023-05-18T15:41:09.339Z,40.96
2023-05-18T15:43:39.179Z,41.27
2023-05-18T15:46:07.766Z,41.80
2023-05-18T15:48:36.825Z,41.33
2023-05-18T15:51:07.550Z,40.74
2023-05-18T15:53:35.872Z,40.46
2023-05-18T15:56:04.282Z,41.55
2023-05-18T15:58:33.493Z,40.69
2023-05-18T16:01:02.209Z,41.39
2023-05-18T16:03:30.760Z,41.64
2023-05-18T16:06:00.393Z,40.25
2023-05-18T16:08:32.249Z,42.49
2023-05-18T16:11:02.260Z,40.44
2023-05-18T16:13:30.714Z,40.95
2023-05-18T16:15:59.213Z,41.08
2023-05-18T16:18:27.600Z,41.98
2023-05-18T16:20:56.038Z,41.08
2023-05-18T16:23:25.162Z,42.19
2023-05-18T16:25:54.995Z,40.08
2023-05-18T16:28:23.041Z,40.26
2023-05-18T16:30:51.829Z,41.36
2023-05-18T16:33:20.281Z,40.16
2023-05-18T16:35:48.451Z,40.55
2023-05-18T16:38:17.293Z,41.43
2023-05-18T16:40:46.184Z,42.97
2023-05-18T16:43:15.916Z,43.19
2023-05-18T16:45:44.461Z,42.17
2023-05-18T16:48:12.935Z,44.06
2023-05-18T16:50:41.335Z,42.30
2023-05-18T16:53:09.480Z,42.75
2023-05-18T16:55:37.535Z,42.94
2023-05-18T16:58:05.903Z,43.63
2023-05-18T17:00:36.054Z,44.30
2023-05-18T17:03:04.821Z,44.77
2023-05-18T17:05:35.082Z,45.64
2023-05-18T17:08:03.725Z,45.76
2023-05-18T17:10:34.670Z,45.44
2023-05-18T17:13:02.747Z,46.39
2023-05-18T17:15:31.456Z,45.31
2023-05-18T17:18:01.474Z,45.69
2023-05-18T17:20:29.856Z,45.90
2023-05-18T17:22:59.942Z,46.62
2023-05-18T17:25:30.346Z,46.61
2023-05-18T17:27:58.913Z,47.44
2023-05-18T17:30:27.187Z,47.64
2023-05-18T17:32:56.118Z,48.05
2023-05-18T17:35:25.770Z,48.64
2023-05-18T17:37:54.979Z,48.57
2023-05-18T17:40:23.993Z,48.97
2023-05-18T17:42:52.097Z,49.09
2023-05-18T17:45:21.063Z,50.66
2023-05-18T17:47:49.910Z,50.35
2023-05-18T17:50:18.081Z,50.02
2023-05-18T17:52:48.738Z,50.43
2023-05-18T17:55:16.938Z,50.85
2023-05-18T17:57:46.976Z,50.81
2023-05-18T18:00:17.711Z,50.69
2023-05-18T18:02:46.143Z,50.64
2023-05-18T18:05:14.660Z,51.76
2023-05-18T18:07:43.004Z,51.14
2023-05-18T18:10:13.358Z,51.15
2023-05-18T18:12:41.806Z,51.96
2023-05-18T18:15:11.459Z,51.14
2023-05-18T18:17:39.774Z,51.50
2023-05-18T18:20:13.527Z,50.93
2023-05-18T18:22:42.002Z,51.17
2023-05-18T18:25:10.230Z,51.54
2023-05-18T18:27:40.464Z,51.46
2023-05-18T18:30:10.821Z,51.06
2023-05-18T18:32:39.046Z,52.49
2023-05-18T18:35:08.009Z,52.63
2023-05-18T18:37:37.158Z,51.53
2023-05-18T18:40:07.190Z,51.62
2023-05-18T18:42:36.398Z,52.19
2023-05-18T18:45:09.210Z,52.29
2023-05-18T18:47:39.411Z,51.95
2023-05-18T18:50:09.010Z,52.60
2023-05-18T18:52:37.566Z,53.38
2023-05-18T18:55:06.882Z,53.33
2023-05-18T18:57:35.440Z,54.31
2023-05-18T19:00:07.030Z,55.25
2023-05-18T19:02:37.497Z,53.36
2023-05-18T19:05:06.810Z,53.32
2023-05-18T19:07:36.332Z,54.26
2023-05-18T19:10:05.413Z,53.91
2023-05-18T19:12:34.020Z,53.33
2023-05-18T19:15:02.437Z,53.76
2023-05-18T19:17:30.909Z,54.32
2023-05-18T19:20:01.159Z,53.84
2023-05-18T19:22:29.797Z,53.82
2023-05-18T19:24:57.779Z,54.60
2023-05-18T19:27:26.217Z,54.11
2023-05-18T19:29:54.309Z,53.80
2023-05-18T19:32:22.877Z,54.68
2023-05-18T19:34:51.999Z,54.50
2023-05-18T19:37:21.700Z,54.62
2023-05-18T19:39:50.559Z,55.15
2023-05-18T19:42:20.732Z,54.85
2023-05-18T19:44:50.661Z,55.34
2023-05-18T19:47:20.306Z,55.39
2023-05-18T19:49:49.420Z,55.13
2023-05-18T19:52:20.084Z,55.86
2023-05-18T19:54:50.746Z,56.20
2023-05-18T19:57:19.732Z,56.02
2023-05-18T19:59:48.635Z,55.84
2023-05-18T20:02:17.384Z,55.66
2023-05-18T20:04:46.434Z,55.73
2023-05-18T20:07:14.835Z,55.48
2023-05-18T20:09:43.707Z,56.45
2023-05-18T20:12:13.619Z,55.91
2023-05-18T20:14:43.761Z,56.30
2023-05-18T20:17:12.118Z,55.91
2023-05-18T20:19:40.916Z,57.07
2023-05-18T20:22:11.373Z,56.50
2023-05-18T20:24:44.944Z,56.96
2023-05-18T20:27:17.207Z,57.26
2023-05-18T20:29:46.184Z,57.50
2023-05-18T20:32:14.865Z,57.30
2023-05-18T20:34:44.538Z,56.97
2023-05-18T20:37:14.227Z,57.47
2023-05-18T20:39:50.424Z,57.29
2023-05-18T20:42:23.420Z,58.35
2023-05-18T20:44:54.000Z,57.41
2023-05-18T20:47:21.973Z,57.64
2023-05-18T20:49:50.391Z,57.62
2023-05-18T20:52:18.896Z,58.25
2023-05-18T20:54:47.396Z,59.40
2023-05-18T20:57:15.715Z,57.89
2023-05-18T20:59:45.842Z,58.74
2023-05-18T21:02:14.367Z,58.43
2023-05-18T21:04:42.693Z,59.24
2023-05-18T21:07:11.320Z,59.16
2023-05-18T21:09:39.571Z,58.94
2023-05-18T21:12:09.072Z,59.00
2023-05-18T21:14:37.557Z,60.05
2023-05-18T21:17:08.063Z,61.20
2023-05-18T21:19:36.667Z,64.04
2023-05-18T21:22:05.259Z,63.30
2023-05-18T21:24:33.529Z,66.41
2023-05-18T21:27:01.692Z,68.00
2023-05-18T21:29:30.617Z,66.28
2023-05-18T21:31:58.985Z,66.21
2023-05-18T21:34:28.992Z,66.58
2023-05-18T21:36:57.457Z,69.65
2023-05-18T21:39:25.843Z,68.83
2023-05-18T21:41:54.212Z,68.59
2023-05-18T21:44:22.503Z,68.73
2023-05-18T21:46:55.398Z,69.67
2023-05-18T21:49:23.668Z,70.64
2023-05-18T21:51:53.662Z,70.36
2023-05-18T21:54:22.036Z,70.37
2023-05-18T21:56:50.430Z,69.58
2023-05-18T21:59:18.780Z,70.35
2023-05-18T22:01:47.378Z,69.79
2023-05-18T22:04:15.679Z,69.12
2023-05-18T22:06:44.493Z,68.43
2023-05-18T22:09:14.584Z,69.23
2023-05-18T22:11:42.985Z,67.48
2023-05-18T22:14:11.512Z,69.21
2023-05-18T22:16:40.143Z,69.26
2023-05-18T22:19:08.807Z,67.99
2023-05-18T22:21:37.588Z,67.55
2023-05-18T22:24:06.558Z,68.52
2023-05-18T22:26:36.686Z,68.62
2023-05-18T22:29:05.087Z,69.35
2023-05-18T22:31:33.853Z,68.85
2023-05-18T22:34:02.169Z,69.59
2023-05-18T22:36:31.411Z,69.20
2023-05-18T22:38:59.789Z,70.24
2023-05-18T22:41:28.301Z,70.73
2023-05-18T22:43:57.906Z,71.23
2023-05-18T22:46:28.268Z,72.19
2023-05-18T22:49:22.790Z,73.16
2023-05-18T22:51:52.724Z,73.69
2023-05-18T22:54:20.871Z,73.78
2023-05-18T22:56:49.380Z,75.18
2023-05-18T22:59:20.477Z,73.75
2023-05-18T23:01:52.875Z,74.29
2023-05-18T23:04:21.868Z,74.45
2023-05-18T23:06:51.601Z,74.63
2023-05-18T23:09:20.268Z,75.12
2023-05-18T23:11:50.044Z,74.41
2023-05-18T23:14:20.125Z,75.25
2023-05-18T23:16:49.388Z,75.87
2023-05-18T23:19:18.619Z,75.90
2023-05-18T23:21:47.359Z,75.91
2023-05-18T23:24:15.838Z,76.53
2023-05-18T23:26:44.857Z,76.73
2023-05-18T23:29:13.322Z,77.01
2023-05-18T23:31:43.417Z,76.53
2023-05-18T23:34:12.889Z,76.14
2023-05-18T23:36:42.804Z,76.45
2023-05-18T23:39:12.098Z,75.92
2023-05-18T23:41:40.930Z,76.90
2023-05-18T23:44:09.716Z,77.47
2023-05-18T23:46:38.371Z,77.73
2023-05-18T23:49:08.330Z,78.62
2023-05-18T23:51:38.148Z,78.89
2023-05-18T23:54:07.897Z,79.01
2023-05-18T23:56:37.020Z,78.73
2023-05-18T23:59:05.737Z,79.30
